Urk, Netherlands
Current Conditions -  °F | °C
As of 3:55 PM on Wednesday 26 Nov 2014 (Local Time) from EHKD Reporting Station
Overcast Overcast  
Wind Chill: 33°   Ceiling: 12000
Heat Index: 41°   Visibility: 6mi
Dew Point: 37°   Wind: 15mph
Humidity: 87%   Direction: 120°ESE
Pressure: 29.91"   Gusts: NA
Location:  52.66°N, 5.6°E
Report Text: EHKD 261455Z AUTO 12013KT 9999 FEW016 OVC120 05/03 Q1013 BLU 12012KT 9999 FEW012 BKN100 TEMPO SCT012 BKN090
Loading
Personal Weather Stations






























Interactive Weather Map New forecast layout! Learn more

10-Day Weather Forecast

Advertisements
Track Severe Weather on mobile